Republic, MI

2:00 PM EDT on August 22, 2014 (GMT -0400)
Green Creek | Change Station
CLOSE
Current Station
Personal Weather Station
Location: Ishpeming, MI
Elevation: 1450 ft
Nearby Weather Stations

Elev 1450 ft 46.43 °N, 87.78 °W | Updated 10 seconds ago

Overcast
Overcast
71.8 °F
Feels Like 76 °F
N
0.0
Wind Variable Wind from SE
Gusts 0.0 mph

Today
High -- | Low -- °F
--% Chance of Precip.
Yesterday
High -- | Low -- °F
Precip. -- in
7:00 AM 8:49 PM
Waning Crescent, 7% visible
Pressure 29.99 in
Visibility 7.0 miles
Clouds Overcast 300 ft
Heat Index 76 °F
Dew Point 40 °F
Humidity 32%
Rainfall 0.00 in
Snow Depth Not available.
UV 3 out of 12
Pollen 5.70 out of 12
Ozone Good
PM2.5 Good
Flu Activity Not available.
METAR KIMT 221754Z AUTO 12006KT 7SM OVC003 21/19 A2999 RMK AO2 SLP155 T02060189 10206 20178 51004 TSNO

More Conditions Fewer Conditions

Pressure 29.99 in
Visibility 7.0 miles
Clouds Overcast 300 ft
Heat Index 76 °F
Dew Point 40 °F
Humidity 32%
Rainfall 0.00 in
Snow Depth Not available.
UV 3 out of 12
Pollen 5.70 out of 12
Ozone Good
PM2.5 Good
Flu Activity Not available.
METAR KIMT 221754Z AUTO 12006KT 7SM OVC003 21/19 A2999 RMK AO2 SLP155 T02060189 10206 20178 51004 TSNO

More Conditions Fewer Conditions

10-Day Weather Forecast

Almanac

Astronomy

Aug. 22, 2014 Rise Set
Actual Time 7:00 AM EDT 8:49 PM EDT
Civil Twilight 6:28 AM EDT 9:21 PM EDT
Nautical Twilight 5:48 AM EDT 10:00 PM EDT
Astronomical Twilight 5:05 AM EDT 10:43 PM EDT
Moon 4:18 AM EDT 7:00 PM EDT
Length of Visible Light 14h 53m
Length of Day
13h 49m
Tomorrow will be 3m 3s shorter.
Waning Crescent, 7% of the Moon is Illuminated
Today
Waning Crescent
Aug 25
New
Sep 2
First Quarter
Sep 8
Full
Sep 15
Last Quarter

Today's Extremes

State Highs State Lows

Community

WunderPhotos

Upload Photos

1,746,213 photos uploaded!

WunderBlogs® & News

Nearby

Air Quality

  Air Quality AQ Index Pollutant
Yesterday Good
OZONE
Yesterday Good
PM2.5
Current Good
PM2.5
Current Good
OZONE
Friday Good
OZONE
Friday Good
PM2.5
Saturday Good
OZONE
Saturday Good
PM2.5
Sunday Good
OZONE
Sunday Good
PM2.5

Snow Depth

Station Depth Elevation
No new snow has been reported.

Earthquake Activity

City Distance Mag. Time & Date
No recent earthquake activity has been reported nearby.
Minimum magnitude displayed is 2.5.

Coastal Water Temperatures

Place Temperature
No Stations Reporting

Nearby Weather Stations